Time;durP1;ratioP1;P1;durP2;ratioP2;P2;SDS_P1;SDS_P2;PMS_P1;PMS_P2;Temp;Humidity;BMP_temperature;BMP_pressure;BME280_temperature;BME280_humidity;BME280_pressure;Samples;Min_cycle;Max_cycle;Signal;HPM_P1;HPM_P2
2022/05/03 00:01:52;;;;;;;;;;;;;;;21.43;43.78;101829.16;7282822;19;151891;-58
2022/05/03 00:04:19;;;;;;;;;;;;;;;21.45;44.51;101823.22;7282061;19;153452;-58
2022/05/03 00:06:46;;;;;;;;;;;;;;;21.44;43.76;101830.00;7280318;19;153333;-58
2022/05/03 00:09:21;;;;;;;;;;;;;;;21.42;43.88;101818.19;7288990;19;152115;-56
2022/05/03 00:11:51;;;;;;;;;;;;;;;21.43;43.95;101817.06;7281934;19;153927;-59
2022/05/03 00:14:19;;;;;;;;;;;;;;;21.40;44.38;101821.28;7278513;19;151990;-58
2022/05/03 00:16:48;;;;;;;;;;;;;;;21.39;44.29;101818.81;7282616;19;152362;-57
2022/05/03 00:19:15;;;;;;;;;;;;;;;21.37;44.13;101826.66;7280857;19;153821;-59
2022/05/03 00:21:43;;;;;;;;;;;;;;;21.35;44.07;101820.53;7283313;19;151785;-57
2022/05/03 00:24:10;;;;;;;;;;;;;;;21.33;44.43;101826.44;7281178;19;152529;-57
2022/05/03 00:26:37;;;;;;;;;;;;;;;21.35;44.36;101817.72;7282451;19;154213;-59
2022/05/03 00:29:04;;;;;;;;;;;;;;;21.32;44.39;101823.91;7284386;19;152077;-57
2022/05/03 00:31:32;;;;;;;;;;;;;;;21.29;44.22;101826.19;7289854;19;152683;-58
2022/05/03 00:33:59;;;;;;;;;;;;;;;21.28;44.72;101824.50;7280849;19;151870;-58
2022/05/03 00:36:26;;;;;;;;;;;;;;;21.28;44.89;101818.88;7282403;19;153775;-59
2022/05/03 00:38:53;;;;;;;;;;;;;;;21.26;44.77;101826.75;7282855;19;154450;-57
2022/05/03 00:41:35;;;;;;;;;;;;;;;21.27;44.67;101825.63;7284222;19;152005;-58
2022/05/03 00:44:02;;;;;;;;;;;;;;;21.27;44.90;101824.78;7281035;19;153679;-60
2022/05/03 00:46:31;;;;;;;;;;;;;;;21.28;45.05;101830.13;7281550;19;152490;-57
2022/05/03 00:49:01;;;;;;;;;;;;;;;21.26;44.90;101826.75;7280737;19;151853;-59
2022/05/03 00:51:36;;;;;;;;;;;;;;;21.25;45.06;101829.88;7283470;19;154377;-58
2022/05/03 00:54:06;;;;;;;;;;;;;;;21.24;44.92;101831.00;7288974;19;153638;-57
2022/05/03 00:56:39;;;;;;;;;;;;;;;21.23;44.97;101829.31;7281906;19;153327;-58
2022/05/03 00:59:17;;;;;;;;;;;;;;;21.24;45.36;101822.56;7279949;19;154709;-59
2022/05/03 01:01:46;;;;;;;;;;;;;;;21.21;45.37;101829.59;7283131;19;152399;-57
2022/05/03 01:04:16;;;;;;;;;;;;;;;21.20;45.17;101822.31;7281658;19;153693;-58
2022/05/03 01:06:46;;;;;;;;;;;;;;;21.21;45.45;101828.78;7280834;19;153987;-58
2022/05/03 01:09:19;;;;;;;;;;;;;;;21.19;45.17;101823.44;7284774;19;151700;-56
2022/05/03 01:11:53;;;;;;;;;;;;;;;21.19;45.26;101826.25;7279074;19;152544;-57
2022/05/03 01:14:23;;;;;;;;;;;;;;;21.16;45.01;101824.03;7275877;19;152457;-58
2022/05/03 01:16:50;;;;;;;;;;;;;;;21.15;45.53;101830.78;7290671;19;151663;-57
2022/05/03 01:19:20;;;;;;;;;;;;;;;21.14;45.43;101829.09;7281673;19;153272;-57
2022/05/03 01:21:48;;;;;;;;;;;;;;;21.12;45.56;101828.50;7283192;19;151730;-57
2022/05/03 01:24:18;;;;;;;;;;;;;;;21.12;45.08;101831.31;7279956;19;153388;-58
2022/05/03 01:26:55;;;;;;;;;;;;;;;21.11;45.53;101826.84;7278485;19;154055;-57
2022/05/03 01:29:23;;;;;;;;;;;;;;;21.12;45.24;101824.88;7281996;19;151959;-57
2022/05/03 01:31:53;;;;;;;;;;;;;;;21.10;45.23;101827.97;7282086;19;152801;-57
2022/05/03 01:34:23;;;;;;;;;;;;;;;21.09;45.76;101819.81;7282021;19;152905;-57
2022/05/03 01:36:53;;;;;;;;;;;;;;;21.09;45.63;101831.06;7290053;19;151662;-57
2022/05/03 01:39:20;;;;;;;;;;;;;;;21.09;45.57;101833.84;7281684;19;154094;-58
2022/05/03 01:41:50;;;;;;;;;;;;;;;21.07;45.56;101830.50;7279447;19;151576;-58
2022/05/03 01:44:20;;;;;;;;;;;;;;;21.05;45.83;101838.38;7278393;19;152960;-58
2022/05/03 01:46:52;;;;;;;;;;;;;;;21.04;45.81;101833.88;7279617;19;153858;-57
2022/05/03 01:52:03;;;;;;;;;;;;;;;21.02;45.55;101836.16;7278842;19;153779;-57
2022/05/03 01:54:34;;;;;;;;;;;;;;;21.01;45.64;101840.09;7277041;19;154100;-57
2022/05/03 01:57:04;;;;;;;;;;;;;;;21.00;46.14;101838.41;7281589;19;151777;-56
2022/05/03 01:59:32;;;;;;;;;;;;;;;20.99;45.79;101833.91;7288053;19;153386;-57
2022/05/03 02:02:05;;;;;;;;;;;;;;;20.98;46.47;101840.69;7285413;19;152207;-57
2022/05/03 02:04:35;;;;;;;;;;;;;;;20.98;46.30;101841.53;7287710;19;153019;-59
2022/05/03 02:07:06;;;;;;;;;;;;;;;20.98;46.38;101835.06;7286083;19;153767;-59
2022/05/03 02:09:36;;;;;;;;;;;;;;;20.99;46.22;101840.38;7285905;19;151616;-57
2022/05/03 02:12:03;;;;;;;;;;;;;;;20.99;46.54;101828.28;7285725;19;152939;-59
2022/05/03 02:17:04;;;;;;;;;;;;;;;20.96;46.79;101835.34;7284530;19;151852;-58
2022/05/03 02:19:34;;;;;;;;;;;;;;;20.94;47.04;101836.78;7287116;19;153018;-56
2022/05/03 02:22:11;;;;;;;;;;;;;;;20.93;47.22;101838.75;7294140;19;153280;-57
2022/05/03 02:24:45;;;;;;;;;;;;;;;20.93;47.09;101837.91;7287194;19;152878;-57
2022/05/03 02:27:13;;;;;;;;;;;;;;;20.92;47.24;101839.03;7283990;19;153651;-58
2022/05/03 02:29:44;;;;;;;;;;;;;;;20.92;47.26;101836.22;7287824;19;152256;-57
2022/05/03 02:32:15;;;;;;;;;;;;;;;20.90;47.09;101830.88;7287384;19;153217;-57
2022/05/03 02:34:47;;;;;;;;;;;;;;;20.91;47.01;101840.16;7282616;19;153975;-57
2022/05/03 02:37:17;;;;;;;;;;;;;;;20.89;47.53;101836.81;7284787;19;152162;-59
2022/05/03 02:39:47;;;;;;;;;;;;;;;20.90;47.08;101832.84;7286891;19;153256;-58
2022/05/03 02:42:15;;;;;;;;;;;;;;;20.90;47.46;101832.84;7286510;19;153475;-58
2022/05/03 02:44:43;;;;;;;;;;;;;;;20.88;46.99;101824.72;7294353;19;151729;-59
2022/05/03 02:47:13;;;;;;;;;;;;;;;20.89;47.33;101836.81;7286232;19;153249;-57
2022/05/03 02:49:43;;;;;;;;;;;;;;;20.89;46.87;101832.03;7285307;19;151738;-59
2022/05/03 02:52:11;;;;;;;;;;;;;;;20.88;47.04;101827.53;7287449;19;153502;-57
2022/05/03 02:54:39;;;;;;;;;;;;;;;20.87;47.13;101828.66;7285343;19;153356;-57
2022/05/03 02:57:06;;;;;;;;;;;;;;;20.85;47.19;101828.94;7282977;19;151784;-58
2022/05/03 03:02:14;;;;;;;;;;;;;;;20.86;47.16;101833.44;7286976;19;153959;-56
2022/05/03 03:04:44;;;;;;;;;;;;;;;20.84;47.22;101827.28;7285776;19;151746;-59
2022/05/03 03:07:13;;;;;;;;;;;;;;;20.86;47.27;101829.78;7289986;19;153410;-58
2022/05/03 03:09:43;;;;;;;;;;;;;;;20.84;47.08;101834.88;7283256;19;151693;-59
2022/05/03 03:12:11;;;;;;;;;;;;;;;20.83;47.29;101836.84;7284953;19;152469;-58
2022/05/03 03:14:42;;;;;;;;;;;;;;;20.82;47.14;101842.72;7281835;19;153948;-58
2022/05/03 03:17:10;;;;;;;;;;;;;;;20.81;47.09;101836.25;7281452;19;151625;-57
2022/05/03 03:19:38;;;;;;;;;;;;;;;20.81;47.03;101841.88;7284367;19;152939;-58
2022/05/03 03:22:08;;;;;;;;;;;;;;;20.81;47.02;101841.88;7281811;19;154378;-57
2022/05/03 03:24:36;;;;;;;;;;;;;;;20.80;47.38;101845.00;7283162;19;151847;-59
2022/05/03 03:27:04;;;;;;;;;;;;;;;20.80;47.63;101848.63;7284412;19;153596;-58
2022/05/03 03:29:32;;;;;;;;;;;;;;;20.78;47.57;101842.47;7289181;19;153243;-59
2022/05/03 03:32:00;;;;;;;;;;;;;;;20.79;47.34;101844.16;7283591;19;152991;-57
2022/05/03 03:34:28;;;;;;;;;;;;;;;20.79;47.45;101849.78;7281216;19;153848;-57
2022/05/03 03:39:25;;;;;;;;;;;;;;;20.78;47.35;101841.63;7284650;19;151726;-56
2022/05/03 03:41:52;;;;;;;;;;;;;;;20.76;46.93;101841.91;7282295;19;153411;-58
2022/05/03 03:44:19;;;;;;;;;;;;;;;20.78;46.88;101841.63;7284500;19;151668;-59
2022/05/03 03:46:46;;;;;;;;;;;;;;;20.77;47.13;101842.75;7284375;19;153075;-56
2022/05/03 03:49:13;;;;;;;;;;;;;;;20.76;47.34;101841.91;7288772;19;153796;-58
2022/05/03 03:51:46;;;;;;;;;;;;;;;20.74;47.29;101841.38;7283530;19;151634;-57
2022/05/03 03:54:13;;;;;;;;;;;;;;;20.74;47.14;101843.34;7281491;19;154155;-57
2022/05/03 03:56:40;;;;;;;;;;;;;;;20.74;47.43;101846.97;7283401;19;151817;-57
2022/05/03 03:59:07;;;;;;;;;;;;;;;20.73;47.08;101838.84;7282984;19;152950;-56
2022/05/03 04:01:34;;;;;;;;;;;;;;;20.73;47.22;101841.66;7283160;19;154046;-56
2022/05/03 04:04:03;;;;;;;;;;;;;;;20.70;47.45;101836.63;7284339;19;152039;-57
2022/05/03 04:06:29;;;;;;;;;;;;;;;20.70;47.51;101845.88;7283292;19;151662;-57
2022/05/03 04:08:56;;;;;;;;;;;;;;;20.70;47.03;101837.47;7280984;19;153939;-56
2022/05/03 04:11:23;;;;;;;;;;;;;;;20.70;47.33;101843.06;7291598;19;151743;-57
2022/05/03 04:13:52;;;;;;;;;;;;;;;20.68;47.29;101844.47;7280873;19;154010;-58
2022/05/03 04:16:23;;;;;;;;;;;;;;;20.67;47.40;101840.81;7282853;19;152071;-57
2022/05/03 04:18:57;;;;;;;;;;;;;;;20.65;47.33;101843.09;7284165;19;152031;-56
2022/05/03 04:21:24;;;;;;;;;;;;;;;20.66;47.38;101841.13;7282767;19;153760;-58
2022/05/03 04:23:51;;;;;;;;;;;;;;;20.66;47.45;101838.31;7281633;19;151527;-58
2022/05/03 04:26:18;;;;;;;;;;;;;;;20.64;47.61;101847.03;7282668;19;152606;-55
2022/05/03 04:28:45;;;;;;;;;;;;;;;20.64;47.28;101834.94;7280602;19;153956;-56
2022/05/03 04:31:12;;;;;;;;;;;;;;;20.63;47.88;101850.09;7281290;19;151630;-57
2022/05/03 04:33:39;;;;;;;;;;;;;;;20.63;47.76;101847.31;7289968;19;153247;-58
2022/05/03 04:36:06;;;;;;;;;;;;;;;20.64;47.45;101854.59;7283144;19;151604;-56
2022/05/03 04:38:33;;;;;;;;;;;;;;;20.64;47.93;101851.78;7284114;19;153360;-57
2022/05/03 04:41:00;;;;;;;;;;;;;;;20.63;47.89;101850.09;7279868;19;152550;-58
2022/05/03 04:43:28;;;;;;;;;;;;;;;20.62;48.17;101860.53;7282540;19;152176;-57
2022/05/03 04:45:54;;;;;;;;;;;;;;;20.61;47.61;101850.41;7282334;19;153015;-59
2022/05/03 04:48:21;;;;;;;;;;;;;;;20.62;48.07;101851.25;7281426;19;153290;-57
2022/05/03 04:50:49;;;;;;;;;;;;;;;20.60;47.75;101857.16;7281462;19;151704;-58
2022/05/03 04:53:23;;;;;;;;;;;;;;;20.60;48.06;101861.94;7284479;19;152481;-56
2022/05/03 04:55:50;;;;;;;;;;;;;;;20.59;47.72;101854.63;7287398;19;153276;-58
2022/05/03 04:58:17;;;;;;;;;;;;;;;20.58;48.19;101850.97;7281794;19;152002;-58
2022/05/03 05:00:45;;;;;;;;;;;;;;;20.57;48.00;101848.47;7279157;19;154385;-57
2022/05/03 05:03:13;;;;;;;;;;;;;;;20.58;48.29;101855.78;7281191;19;151583;-57
2022/05/03 05:05:40;;;;;;;;;;;;;;;20.56;48.05;101853.25;7278869;19;152652;-59
2022/05/03 05:08:07;;;;;;;;;;;;;;;20.57;48.34;101849.31;7281038;19;154739;-58
2022/05/03 05:10:34;;;;;;;;;;;;;;;20.59;48.17;101858.28;7280475;19;151896;-57
2022/05/03 05:13:01;;;;;;;;;;;;;;;20.57;48.35;101852.13;7277561;19;155614;-57
2022/05/03 05:15:35;;;;;;;;;;;;;;;20.55;48.43;101859.13;7278092;19;152604;-59
2022/05/03 05:18:02;;;;;;;;;;;;;;;20.54;48.22;101872.31;7287090;19;151572;-59
2022/05/03 05:20:29;;;;;;;;;;;;;;;20.55;48.21;101870.38;7280791;19;153247;-57
2022/05/03 05:22:56;;;;;;;;;;;;;;;20.58;48.30;101870.63;7280165;19;151879;-58
2022/05/03 05:25:43;;;;;;;;;;;;;;;20.61;48.17;101881.31;7281701;19;154809;-59
2022/05/03 05:28:10;;;;;;;;;;;;;;;20.65;48.43;101878.75;7279757;19;152470;-57
2022/05/03 05:30:37;;;;;;;;;;;;;;;20.68;48.58;101884.63;7281945;19;151517;-57
2022/05/03 05:33:04;;;;;;;;;;;;;;;20.72;49.00;101888.53;7279524;19;153419;-59
2022/05/03 05:35:31;;;;;;;;;;;;;;;20.77;49.07;101885.72;7282916;19;153987;-58
2022/05/03 05:37:58;;;;;;;;;;;;;;;20.84;48.95;101885.44;7285073;19;151878;-59
2022/05/03 05:40:25;;;;;;;;;;;;;;;20.90;49.01;101889.88;7291601;19;153277;-58
2022/05/03 05:42:52;;;;;;;;;;;;;;;20.98;48.81;101885.63;7287170;19;151975;-59
2022/05/03 05:45:19;;;;;;;;;;;;;;;21.04;48.69;101893.72;7283596;19;153119;-59
2022/05/03 05:47:46;;;;;;;;;;;;;;;21.12;48.53;101895.13;7284111;19;153807;-58
2022/05/03 05:50:13;;;;;;;;;;;;;;;21.19;48.19;101893.69;7286430;19;152002;-59
2022/05/03 05:55:10;;;;;;;;;;;;;;;21.34;47.81;101897.53;7282433;19;154021;-57
2022/05/03 05:57:38;;;;;;;;;;;;;;;21.41;47.75;101900.88;7283196;19;151831;-59
2022/05/03 06:00:05;;;;;;;;;;;;;;;21.49;47.82;101900.25;7290115;19;152603;-58
2022/05/03 06:02:32;;;;;;;;;;;;;;;21.55;47.85;101899.91;7286490;19;151834;-58
2022/05/03 06:04:59;;;;;;;;;;;;;;;21.61;47.05;101903.53;7286181;19;153589;-57
2022/05/03 06:07:26;;;;;;;;;;;;;;;21.69;47.34;101919.78;7285911;19;153598;-57
2022/05/03 06:09:53;;;;;;;;;;;;;;;21.75;46.76;101913.00;7286007;19;151527;-58
2022/05/03 06:12:20;;;;;;;;;;;;;;;21.82;46.91;101907.03;7284702;19;152632;-58
2022/05/03 06:14:47;;;;;;;;;;;;;;;21.88;46.86;101906.69;7283660;19;153510;-59
2022/05/03 06:17:15;;;;;;;;;;;;;;;21.98;47.36;101906.66;7287374;19;151530;-58
2022/05/03 06:19:42;;;;;;;;;;;;;;;22.06;46.77;101902.34;7285979;19;152813;-57
2022/05/03 06:22:09;;;;;;;;;;;;;;;22.14;46.16;101901.69;7291392;19;153681;-58
2022/05/03 06:24:36;;;;;;;;;;;;;;;22.17;45.66;101904.75;7286834;19;153616;-57
2022/05/03 06:27:03;;;;;;;;;;;;;;;22.24;45.53;101912.03;7282999;19;153357;-58
2022/05/03 06:29:32;;;;;;;;;;;;;;;22.27;45.47;101915.09;7284777;19;151953;-57
2022/05/03 06:32:00;;;;;;;;;;;;;;;22.32;45.12;101917.00;7284354;19;152780;-58
2022/05/03 06:34:27;;;;;;;;;;;;;;;22.31;44.02;101902.09;7282927;19;153916;-57
2022/05/03 06:36:54;;;;;;;;;;;;;;;22.27;44.52;101911.44;7283997;19;152038;-57
2022/05/03 06:39:21;;;;;;;;;;;;;;;22.26;44.57;101913.41;7286558;19;153216;-56
2022/05/03 06:41:48;;;;;;;;;;;;;;;22.25;44.30;101919.34;7283688;19;153636;-58
2022/05/03 06:44:16;;;;;;;;;;;;;;;22.25;44.06;101928.63;7293798;19;151772;-57
2022/05/03 06:46:43;;;;;;;;;;;;;;;22.24;43.75;101921.31;7282447;19;153394;-59
2022/05/03 06:49:11;;;;;;;;;;;;;;;22.24;43.15;101926.94;7279855;19;152061;-58
2022/05/03 06:51:38;;;;;;;;;;;;;;;22.24;43.10;101923.28;7284263;19;152681;-56
2022/05/03 06:54:05;;;;;;;;;;;;;;;22.23;43.35;101928.06;7278351;19;153547;-56
2022/05/03 06:56:35;;;;;;;;;;;;;;;22.21;42.79;101923.91;7283815;19;152877;-56
2022/05/03 06:59:03;;;;;;;;;;;;;;;22.20;42.87;101930.66;7276927;19;153133;-57
2022/05/03 07:01:30;;;;;;;;;;;;;;;22.20;42.85;101930.66;7281359;19;152321;-58
2022/05/03 07:03:57;;;;;;;;;;;;;;;22.17;42.93;101926.44;7285639;19;151738;-58
2022/05/03 07:06:24;;;;;;;;;;;;;;;22.17;42.52;101926.44;7282661;19;152776;-58
2022/05/03 07:08:51;;;;;;;;;;;;;;;22.14;42.46;101924.22;7278540;19;151844;-58
2022/05/03 07:11:18;;;;;;;;;;;;;;;22.12;42.67;101929.31;7274365;19;153211;-57
2022/05/03 07:13:46;;;;;;;;;;;;;;;22.10;42.65;101935.25;7278706;19;152883;-58
2022/05/03 07:16:18;;;;;;;;;;;;;;;22.07;42.34;101927.41;7282008;19;151790;-59
2022/05/03 07:23:46;;;;;;;;;;;;;;;22.03;42.65;101934.72;7286202;19;151868;-59
2022/05/03 07:26:14;;;;;;;;;;;;;;;21.99;43.07;101944.03;7281860;19;153150;-59
2022/05/03 07:28:41;;;;;;;;;;;;;;;21.96;43.06;101939.03;7280014;19;154163;-59
2022/05/03 07:31:09;;;;;;;;;;;;;;;21.94;43.13;101944.13;7283861;19;153489;-59
2022/05/03 07:33:36;;;;;;;;;;;;;;;21.90;42.74;101945.78;7283710;19;153708;-59
2022/05/03 07:36:04;;;;;;;;;;;;;;;21.87;42.72;101943.56;7284582;19;151869;-58
2022/05/03 07:38:31;;;;;;;;;;;;;;;21.85;42.85;101945.84;7281481;19;153382;-59
2022/05/03 07:40:58;;;;;;;;;;;;;;;21.83;43.00;101946.13;7283347;19;154412;-59
2022/05/03 07:43:26;;;;;;;;;;;;;;;21.81;42.95;101954.00;7285063;19;151481;-59
2022/05/03 07:45:54;;;;;;;;;;;;;;;21.81;43.09;101953.16;7286164;19;152805;-59
2022/05/03 07:48:21;;;;;;;;;;;;;;;21.78;42.69;101953.75;7282998;19;152033;-58
2022/05/03 07:50:48;;;;;;;;;;;;;;;21.76;42.95;101953.22;7291909;19;152096;-60
2022/05/03 07:53:15;;;;;;;;;;;;;;;21.74;43.11;101942.25;7285547;19;153386;-60
2022/05/03 07:55:44;;;;;;;;;;;;;;;21.72;42.96;101952.94;7284234;19;151917;-59
2022/05/03 07:58:11;;;;;;;;;;;;;;;21.69;43.24;101954.38;7279563;19;153799;-58
2022/05/03 08:00:39;;;;;;;;;;;;;;;21.68;42.87;101947.06;7281637;19;153443;-58
2022/05/03 08:05:41;;;;;;;;;;;;;;;21.66;42.73;101957.78;7282010;19;152733;-57
2022/05/03 08:08:08;;;;;;;;;;;;;;;21.64;42.81;101945.97;7282640;19;153354;-59
2022/05/03 08:10:35;;;;;;;;;;;;;;;21.62;42.93;101944.59;7291797;19;151747;-58
2022/05/03 08:13:02;;;;;;;;;;;;;;;21.61;42.83;101943.75;7281767;19;153975;-60
2022/05/03 08:15:29;;;;;;;;;;;;;;;21.58;42.72;101935.88;7284823;19;151729;-58
2022/05/03 08:17:56;;;;;;;;;;;;;;;21.58;43.08;101955.56;7281699;19;153740;-56
2022/05/03 08:20:23;;;;;;;;;;;;;;;21.58;42.77;101951.91;7282642;19;154000;-60
2022/05/03 08:22:57;;;;;;;;;;;;;;;21.56;42.94;101954.19;7286081;19;151988;-59
2022/05/03 08:25:24;;;;;;;;;;;;;;;21.54;42.69;101960.09;7285064;19;153455;-60
2022/05/03 08:27:51;;;;;;;;;;;;;;;21.50;43.17;101958.16;7284009;19;153491;-59
2022/05/03 08:30:18;;;;;;;;;;;;;;;21.49;42.79;101959.28;7285168;19;151500;-58
2022/05/03 08:32:45;;;;;;;;;;;;;;;21.47;42.96;101961.56;7289502;19;153133;-60
2022/05/03 08:35:12;;;;;;;;;;;;;;;21.45;42.78;101964.66;7282720;19;151568;-58
2022/05/03 08:42:39;;;;;;;;;;;;;;;21.40;43.27;101961.03;7284654;19;151822;-57
2022/05/03 08:45:07;;;;;;;;;;;;;;;21.38;42.93;101972.59;7282241;19;152415;-58
2022/05/03 08:47:35;;;;;;;;;;;;;;;21.37;42.92;101964.44;7281742;19;154367;-60
2022/05/03 08:50:03;;;;;;;;;;;;;;;21.36;42.76;101963.59;7284608;19;152403;-60
2022/05/03 08:52:33;;;;;;;;;;;;;;;21.34;42.90;101967.81;7284340;19;153248;-59
2022/05/03 08:55:02;;;;;;;;;;;;;;;21.31;42.94;101974.84;7290717;19;153320;-60
2022/05/03 08:57:29;;;;;;;;;;;;;;;21.30;43.23;101970.38;7283147;19;155162;-59
2022/05/03 08:59:57;;;;;;;;;;;;;;;21.28;43.30;101969.81;7282608;19;153357;-58
2022/05/03 09:02:24;;;;;;;;;;;;;;;21.26;43.27;101975.72;7281690;19;152370;-58
2022/05/03 09:04:51;;;;;;;;;;;;;;;21.25;42.93;101976.03;7281386;19;152542;-58
2022/05/03 09:07:19;;;;;;;;;;;;;;;21.23;43.33;101970.69;7282471;19;154211;-60
2022/05/03 09:09:58;;;;;;;;;;;;;;;21.22;42.95;101970.97;7281459;19;151731;-58
2022/05/03 09:12:32;;;;;;;;;;;;;;;21.20;43.29;101976.88;7283585;19;152281;-57
2022/05/03 09:15:00;;;;;;;;;;;;;;;21.20;42.92;101979.69;7279806;19;153267;-58
2022/05/03 09:17:38;;;;;;;;;;;;;;;21.18;42.97;101981.09;7290371;19;151757;-58
2022/05/03 09:23:46;;;;;;;;;;;;;;;21.16;43.11;101977.75;7284229;19;153488;-59
2022/05/03 09:25:26;;;;;;;;;;;;;;;21.15;43.23;101984.50;7283986;19;152628;-57
2022/05/03 09:28:04;;;;;;;;;;;;;;;21.13;43.30;101984.78;7280335;19;153824;-58
2022/05/03 09:30:31;;;;;;;;;;;;;;;21.11;43.50;101980.56;7282054;19;151795;-59
2022/05/03 09:32:58;;;;;;;;;;;;;;;21.10;43.25;101973.25;7280783;19;153292;-60
2022/05/03 09:35:32;;;;;;;;;;;;;;;21.09;43.09;101975.22;7280208;19;153558;-60
2022/05/03 09:38:01;;;;;;;;;;;;;;;21.08;43.53;101978.28;7282152;19;151815;-60
2022/05/03 09:40:29;;;;;;;;;;;;;;;21.07;43.58;101973.81;7288817;19;152274;-59
2022/05/03 09:43:05;;;;;;;;;;;;;;;21.05;43.55;101971.28;7279725;19;151649;-60
2022/05/03 09:45:32;;;;;;;;;;;;;;;21.04;43.29;101980.84;7280295;19;153410;-60
2022/05/03 09:48:05;;;;;;;;;;;;;;;21.03;43.43;101969.91;7279239;19;154039;-60
2022/05/03 09:50:37;;;;;;;;;;;;;;;21.02;43.58;101971.88;7280423;19;151688;-58
2022/05/03 09:53:12;;;;;;;;;;;;;;;21.01;43.29;101972.16;7282975;19;154711;-57
2022/05/03 09:55:40;;;;;;;;;;;;;;;21.00;43.15;101973.28;7281099;19;154084;-57
2022/05/03 09:58:09;;;;;;;;;;;;;;;20.97;43.40;101976.66;7279320;19;151851;-59
2022/05/03 10:00:38;;;;;;;;;;;;;;;20.96;43.34;101981.44;7283055;19;152650;-60
2022/05/03 10:03:07;;;;;;;;;;;;;;;20.95;43.29;101974.13;7288222;19;151727;-57
2022/05/03 10:05:35;;;;;;;;;;;;;;;20.95;43.39;101976.09;7279548;19;153310;-58
2022/05/03 10:08:03;;;;;;;;;;;;;;;20.93;43.42;101975.56;7279234;19;152757;-58
2022/05/03 10:10:31;;;;;;;;;;;;;;;20.91;43.28;101975.00;7280410;19;151799;-59
2022/05/03 10:12:58;;;;;;;;;;;;;;;20.90;43.24;101968.53;7280561;19;151735;-60
2022/05/03 10:23:13;;;;;;;;;;;;;;;20.86;43.39;101967.41;7294573;19;153995;-59
2022/05/03 10:25:43;;;;;;;;;;;;;;;20.84;43.38;101967.72;7287947;19;153239;-59
2022/05/03 10:28:10;;;;;;;;;;;;;;;20.84;43.24;101959.31;7286325;19;155569;-58
2022/05/03 10:30:39;;;;;;;;;;;;;;;20.84;43.55;101964.91;7286257;19;151761;-60
2022/05/03 10:33:09;;;;;;;;;;;;;;;20.84;43.63;101967.72;7285915;19;152432;-60
2022/05/03 10:35:36;;;;;;;;;;;;;;;20.82;43.28;101966.31;7287079;19;154515;-57
2022/05/03 10:38:05;;;;;;;;;;;;;;;20.81;43.44;101965.47;7285073;19;152123;-60
2022/05/03 10:40:38;;;;;;;;;;;;;;;20.79;43.67;101969.69;7286368;19;152833;-58
2022/05/03 10:43:11;;;;;;;;;;;;;;;20.80;43.66;101969.41;7285828;19;153725;-59
2022/05/03 10:45:42;;;;;;;;;;;;;;;20.78;43.75;101968.88;7294770;19;151828;-58
2022/05/03 10:48:21;;;;;;;;;;;;;;;20.78;43.72;101959.59;7286392;19;154347;-57
2022/05/03 10:50:51;;;;;;;;;;;;;;;20.78;43.71;101966.06;7288215;19;151747;-58
2022/05/03 10:53:19;;;;;;;;;;;;;;;20.76;43.69;101968.28;7285655;19;153209;-59
2022/05/03 10:55:50;;;;;;;;;;;;;;;20.74;43.51;101967.75;7283289;19;154207;-58
2022/05/03 10:58:20;;;;;;;;;;;;;;;20.74;43.76;101964.94;7285231;19;151831;-59
2022/05/03 11:00:50;;;;;;;;;;;;;;;20.73;43.54;101962.41;7286987;19;153405;-56
2022/05/03 11:03:18;;;;;;;;;;;;;;;20.72;43.77;101961.56;7286891;19;153892;-57
2022/05/03 11:06:05;;;;;;;;;;;;;;;20.71;43.38;101965.53;7284289;19;152334;-57
2022/05/03 11:08:32;;;;;;;;;;;;;;;20.70;43.64;101955.41;7292120;19;153126;-59
2022/05/03 11:10:59;;;;;;;;;;;;;;;20.70;43.64;101963.84;7287715;19;151891;-59
2022/05/03 11:13:29;;;;;;;;;;;;;;;20.70;43.67;101952.59;7286592;19;153266;-59
2022/05/03 11:16:00;;;;;;;;;;;;;;;20.70;43.37;101954.56;7283858;19;154387;-58
2022/05/03 11:18:28;;;;;;;;;;;;;;;20.68;43.52;101951.19;7286601;19;151739;-58
2022/05/03 11:20:56;;;;;;;;;;;;;;;20.68;43.62;101946.41;7287465;19;151528;-59
2022/05/03 11:23:23;;;;;;;;;;;;;;;20.66;43.47;101947.84;7284988;19;153048;-58
2022/05/03 11:25:50;;;;;;;;;;;;;;;20.66;43.41;101945.88;7286597;19;151720;-58
2022/05/03 11:28:17;;;;;;;;;;;;;;;20.65;43.69;101941.38;7286652;19;152077;-59
2022/05/03 11:30:44;;;;;;;;;;;;;;;20.65;43.92;101943.34;7293231;19;153793;-60
2022/05/03 11:33:11;;;;;;;;;;;;;;;20.64;43.46;101948.13;7284215;19;153506;-58
2022/05/03 11:35:40;;;;;;;;;;;;;;;20.65;43.58;101949.81;7283035;19;154300;-59
2022/05/03 11:38:11;;;;;;;;;;;;;;;20.63;43.47;101942.78;7284047;19;151859;-59
2022/05/03 11:40:58;;;;;;;;;;;;;;;20.64;43.40;101941.66;7285946;19;154905;-60
2022/05/03 11:43:25;;;;;;;;;;;;;;;20.63;43.48;101934.34;7285494;19;153649;-58
2022/05/03 11:45:52;;;;;;;;;;;;;;;20.63;43.82;101939.97;7284711;19;151879;-58
2022/05/03 11:48:19;;;;;;;;;;;;;;;20.63;43.81;101939.97;7283787;19;153344;-58
2022/05/03 11:58:18;;;;;;;;;;;;;;;20.62;43.71;101939.16;7285500;19;151854;-59
2022/05/03 12:00:47;;;;;;;;;;;;;;;20.61;43.68;101943.06;7284730;19;153528;-59
2022/05/03 12:03:15;;;;;;;;;;;;;;;20.61;43.75;101931.84;7284628;19;152722;-60
2022/05/03 12:05:46;;;;;;;;;;;;;;;20.60;43.90;101938.59;7282872;19;151714;-60
2022/05/03 12:08:16;;;;;;;;;;;;;;;20.59;43.41;101942.50;7286115;19;153580;-58
2022/05/03 12:10:44;;;;;;;;;;;;;;;20.60;43.85;101938.59;7282073;19;153745;-59
2022/05/03 12:13:12;;;;;;;;;;;;;;;20.59;43.93;101938.84;7291914;19;151782;-58
2022/05/03 12:15:39;;;;;;;;;;;;;;;20.59;43.59;101931.28;7282392;19;153777;-59
2022/05/03 12:18:09;;;;;;;;;;;;;;;20.60;43.48;101935.78;7282663;19;151630;-59
2022/05/03 12:20:40;;;;;;;;;;;;;;;20.59;43.53;101922.00;7285238;19;152633;-57
2022/05/03 12:23:10;;;;;;;;;;;;;;;20.61;43.60;101934.66;7282857;19;154166;-58
2022/05/03 12:25:37;;;;;;;;;;;;;;;20.59;43.59;101928.47;7283005;19;151858;-59
2022/05/03 12:28:05;;;;;;;;;;;;;;;20.59;43.54;101924.81;7282220;19;154590;-59
2022/05/03 12:30:32;;;;;;;;;;;;;;;20.59;43.53;101931.28;7282785;19;154217;-60
2022/05/03 12:33:02;;;;;;;;;;;;;;;20.60;43.65;101920.88;7284358;19;151946;-60
2022/05/03 12:35:29;;;;;;;;;;;;;;;20.58;43.55;101925.97;7288531;19;152819;-58
2022/05/03 12:37:57;;;;;;;;;;;;;;;20.57;43.87;101927.09;7282463;19;151606;-58
2022/05/03 12:40:25;;;;;;;;;;;;;;;20.56;43.48;101925.41;7281874;19;152469;-59
2022/05/03 12:42:52;;;;;;;;;;;;;;;20.56;43.74;101916.97;7281746;19;153505;-58
2022/05/03 12:45:19;;;;;;;;;;;;;;;20.55;43.74;101927.38;7283002;19;151890;-59
2022/05/03 12:47:48;;;;;;;;;;;;;;;20.55;43.88;101916.13;7284515;19;151532;-60
2022/05/03 12:50:16;;;;;;;;;;;;;;;20.57;43.40;101927.09;7280987;19;153977;-60
2022/05/03 12:52:44;;;;;;;;;;;;;;;20.54;43.47;101914.44;7282520;19;151914;-57
2022/05/03 12:55:11;;;;;;;;;;;;;;;20.55;43.73;101913.31;7284526;19;152768;-61
2022/05/03 13:00:11;;;;;;;;;;;;;;;20.56;43.48;101920.63;7279065;19;152702;-59
2022/05/03 13:02:38;;;;;;;;;;;;;;;20.55;43.57;101912.47;7281448;19;154010;-59
2022/05/03 13:05:06;;;;;;;;;;;;;;;20.55;43.82;101918.09;7283133;19;151494;-56
2022/05/03 13:07:33;;;;;;;;;;;;;;;20.54;43.66;101924.81;7282430;19;153788;-59
2022/05/03 13:10:00;;;;;;;;;;;;;;;20.54;43.80;101910.78;7280787;19;153429;-59
2022/05/03 13:12:27;;;;;;;;;;;;;;;20.55;43.59;101909.66;7283897;19;151704;-59
2022/05/03 13:14:55;;;;;;;;;;;;;;;20.53;43.51;101904.38;7280584;19;152738;-58
2022/05/03 13:17:22;;;;;;;;;;;;;;;20.54;43.43;101906.03;7283132;19;154477;-59
2022/05/03 13:19:49;;;;;;;;;;;;;;;20.54;43.83;101910.78;7288068;19;151618;-57
2022/05/03 13:22:16;;;;;;;;;;;;;;;20.54;43.79;101897.59;7282614;19;152157;-61